Impacts TAF Board INFO
FOR SITUATIONAL AWARENESS. NOT TO BE USED FOR FLIGHT PLANNING PURPOSES.
IDs:

KCVG - Cincinnati Intl, KY, US

Issued at 2102 UTC 25 May 2018
Updated at 2228 UTC 25 May 2018
Potential Impact None Slight Moderate High
Time2152Z 25/23Z 26/00Z 26/01Z 26/02Z 26/03Z 26/04Z 26/05Z 26/06Z 26/07Z 26/08Z 26/09Z 26/10Z 26/11Z>>
Type OBS PRVL PRVL PRVL PRVL PRVL PRVL PRVL PRVL PRVL PRVL PRVL PRVL PRVL
VIS 10 >6 >6 >6 >6 >6 >6 >6 >6 >6 >6 >6 >6 >6
CIG -- -- -- -- -- -- -- -- 100 100 100 100 100 35
Cover FEW FEW FEW FEW FEW FEW FEW FEW BKN BKN BKN BKN BKN BKN
FltCat VFR VFR VFR VFR VFR VFR VFR VFR VFR VFR VFR VFR VFR VFR
WX -- -- -- -- -- -- -- -- -- -- -- -- -- VCSH
WDir 220 210 210 210 210 210 210 210 180 180 180 180 180 200
WSpd 5 5 5 5 5 5 5 5 3 3 3 3 3 4
WGst -- -- -- -- -- -- -- -- -- -- -- -- -- --

Raw TAF
KCVG 252102Z 2521/2624 21005KT P6SM FEW250
  FM260600 18003KT P6SM FEW050 BKN100
  FM261100 20004KT P6SM VCSH BKN035 BKN100
  FM261700 21010KT P6SM VCTS BKN022CB
  FM261900 23011KT P6SM VCTS BKN035CB
  FM262300 25007KT P6SM VCSH BKN035


Raw METAR
KCVG 252152Z 22005KT 10SM FEW065 FEW300 29/14 A2989 RMK AO2 SLP113 T02890144
KCVG 252052Z 20007KT 180V250 10SM FEW070 FEW300 29/13 A2991 RMK AO2 SLP117 T02890128 58026
KCVG 251952Z 22003KT 10SM FEW065 FEW300 29/13 A2994 RMK AO2 SLP128 T02890128

METAR Board
Radar Display
Forecast Discussion

FOR SITUATIONAL AWARENESS. NOT TO BE USED FOR FLIGHT PLANNING PURPOSES.